Melfort, Canada
Current Conditions -  °F | °C
As of 5:00 PM on Friday 21 Nov 2014 (Local Time) from CYBU Reporting Station
Overcast Overcast  
Wind Chill: -6°   Ceiling: 1600
Heat Index: -1°   Visibility: 9mi
Dew Point: -3°   Wind: 10mph
Humidity: 86%   Direction: 330°NNW
Pressure: 29.53"   Gusts: NA
Location:  52.86°N, 104.62°W
Report Text: CYBU 212300Z AUTO 33009KT 9SM OVC016 M01/M03 A2953 RMK SLP021
Loading
Personal Weather Stations






























Interactive Weather Map New forecast layout! Learn more

10-Day Weather Forecast

Advertisements
Track Severe Weather on mobile